sensor_id;sensor_type;location;lat;lon;timestamp;pressure;altitude;pressure_sealevel;temperature;humidity
58092;BME280;43896;48.178;11.578;2023-03-04T00:00:50;96197.41;;;4.88;66.31
58092;BME280;43896;48.178;11.578;2023-03-04T00:03:15;96180.28;;;4.61;66.74
58092;BME280;43896;48.178;11.578;2023-03-04T00:05:40;96212.41;;;4.73;67.14
58092;BME280;43896;48.178;11.578;2023-03-04T00:08:06;96199.50;;;4.72;66.40
58092;BME280;43896;48.178;11.578;2023-03-04T00:10:31;96205.19;;;4.77;67.02
58092;BME280;43896;48.178;11.578;2023-03-04T00:12:56;96193.31;;;4.73;66.78
58092;BME280;43896;48.178;11.578;2023-03-04T00:15:22;96193.97;;;4.76;66.87
58092;BME280;43896;48.178;11.578;2023-03-04T00:17:47;96219.31;;;4.85;66.37
58092;BME280;43896;48.178;11.578;2023-03-04T00:20:13;96200.53;;;4.69;66.83
58092;BME280;43896;48.178;11.578;2023-03-04T00:22:38;96211.94;;;4.79;66.71
58092;BME280;43896;48.178;11.578;2023-03-04T00:25:04;96208.75;;;4.76;66.35
58092;BME280;43896;48.178;11.578;2023-03-04T00:27:29;96197.22;;;4.67;66.62
58092;BME280;43896;48.178;11.578;2023-03-04T00:29:55;96208.63;;;4.77;66.36
58092;BME280;43896;48.178;11.578;2023-03-04T00:32:20;96193.41;;;4.60;66.72
58092;BME280;43896;48.178;11.578;2023-03-04T00:34:46;96221.44;;;4.80;66.28
58092;BME280;43896;48.178;11.578;2023-03-04T00:37:11;96228.44;;;4.80;66.87
58092;BME280;43896;48.178;11.578;2023-03-04T00:39:37;96215.63;;;4.77;66.32
58092;BME280;43896;48.178;11.578;2023-03-04T00:42:02;96201.72;;;4.65;66.20
58092;BME280;43896;48.178;11.578;2023-03-04T00:44:28;96216.56;;;4.76;66.08
58092;BME280;43896;48.178;11.578;2023-03-04T00:46:53;96220.84;;;4.77;66.44
58092;BME280;43896;48.178;11.578;2023-03-04T00:49:18;96222.84;;;4.73;65.75
58092;BME280;43896;48.178;11.578;2023-03-04T00:51:43;96208.59;;;4.66;66.32
58092;BME280;43896;48.178;11.578;2023-03-04T00:54:09;96213.34;;;4.72;66.48
58092;BME280;43896;48.178;11.578;2023-03-04T00:56:34;96197.78;;;4.59;66.09
58092;BME280;43896;48.178;11.578;2023-03-04T00:58:59;96224.25;;;4.77;66.70
58092;BME280;43896;48.178;11.578;2023-03-04T01:01:25;96209.97;;;4.59;66.61
58092;BME280;43896;48.178;11.578;2023-03-04T01:03:50;96215.44;;;4.56;66.75
58092;BME280;43896;48.178;11.578;2023-03-04T01:06:15;96205.34;;;4.51;66.97
58092;BME280;43896;48.178;11.578;2023-03-04T01:08:41;96211.75;;;4.58;66.78
58092;BME280;43896;48.178;11.578;2023-03-04T01:11:07;96190.84;;;4.47;66.43
58092;BME280;43896;48.178;11.578;2023-03-04T01:13:32;96208.53;;;4.55;66.96
58092;BME280;43896;48.178;11.578;2023-03-04T01:15:58;96204.16;;;4.55;67.28
58092;BME280;43896;48.178;11.578;2023-03-04T01:18:23;96184.00;;;4.46;66.92
58092;BME280;43896;48.178;11.578;2023-03-04T01:20:49;96204.25;;;4.54;66.68
58092;BME280;43896;48.178;11.578;2023-03-04T01:23:14;96190.75;;;4.48;66.62
58092;BME280;43896;48.178;11.578;2023-03-04T01:25:40;96182.69;;;4.40;66.42
58092;BME280;43896;48.178;11.578;2023-03-04T01:28:05;96195.13;;;4.48;66.76
58092;BME280;43896;48.178;11.578;2023-03-04T01:30:30;96194.53;;;4.44;66.64
58092;BME280;43896;48.178;11.578;2023-03-04T01:32:56;96178.19;;;4.42;66.23
58092;BME280;43896;48.178;11.578;2023-03-04T01:35:21;96169.50;;;4.30;66.96
58092;BME280;43896;48.178;11.578;2023-03-04T01:37:46;96186.81;;;4.43;66.08
58092;BME280;43896;48.178;11.578;2023-03-04T01:40:12;96170.31;;;4.31;66.66
58092;BME280;43896;48.178;11.578;2023-03-04T01:42:37;96186.94;;;4.41;66.67
58092;BME280;43896;48.178;11.578;2023-03-04T01:45:04;96169.00;;;4.25;66.70
58092;BME280;43896;48.178;11.578;2023-03-04T01:47:32;96180.50;;;4.34;67.38
58092;BME280;43896;48.178;11.578;2023-03-04T01:50:01;96156.00;;;4.12;67.14
58092;BME280;43896;48.178;11.578;2023-03-04T01:52:27;96166.00;;;4.19;67.52
58092;BME280;43896;48.178;11.578;2023-03-04T01:54:52;96168.16;;;4.25;67.07
58092;BME280;43896;48.178;11.578;2023-03-04T01:57:20;96175.22;;;4.23;67.02
58092;BME280;43896;48.178;11.578;2023-03-04T01:59:47;96174.81;;;4.29;66.60
58092;BME280;43896;48.178;11.578;2023-03-04T02:02:32;96161.06;;;4.27;66.81
58092;BME280;43896;48.178;11.578;2023-03-04T02:04:57;96149.00;;;4.26;66.62
58092;BME280;43896;48.178;11.578;2023-03-04T02:07:23;96149.00;;;4.26;66.81
58092;BME280;43896;48.178;11.578;2023-03-04T02:09:48;96146.88;;;4.31;66.29
58092;BME280;43896;48.178;11.578;2023-03-04T02:12:13;96141.06;;;4.27;66.06
58092;BME280;43896;48.178;11.578;2023-03-04T02:14:39;96153.53;;;4.35;66.52
58092;BME280;43896;48.178;11.578;2023-03-04T02:17:10;96126.03;;;4.20;65.92
58092;BME280;43896;48.178;11.578;2023-03-04T02:22:16;96132.72;;;4.11;66.34
58092;BME280;43896;48.178;11.578;2023-03-04T02:24:44;96148.00;;;4.16;66.84
58092;BME280;43896;48.178;11.578;2023-03-04T02:27:11;96149.44;;;4.20;67.18
58092;BME280;43896;48.178;11.578;2023-03-04T02:29:37;96133.66;;;4.10;66.69
58092;BME280;43896;48.178;11.578;2023-03-04T02:32:03;96143.00;;;4.12;66.34
58092;BME280;43896;48.178;11.578;2023-03-04T02:34:33;96138.28;;;4.18;66.44
58092;BME280;43896;48.178;11.578;2023-03-04T02:37:00;96144.25;;;4.20;66.32
58092;BME280;43896;48.178;11.578;2023-03-04T02:39:39;96147.25;;;4.26;66.32
58092;BME280;43896;48.178;11.578;2023-03-04T02:42:05;96134.38;;;4.12;66.74
58092;BME280;43896;48.178;11.578;2023-03-04T02:44:35;96132.59;;;4.12;65.95
58092;BME280;43896;48.178;11.578;2023-03-04T02:47:02;96151.44;;;4.16;66.38
58092;BME280;43896;48.178;11.578;2023-03-04T02:49:29;96148.59;;;4.19;66.58
58092;BME280;43896;48.178;11.578;2023-03-04T02:52:12;96154.66;;;4.20;66.05
58092;BME280;43896;48.178;11.578;2023-03-04T02:54:37;96153.91;;;4.18;66.21
58092;BME280;43896;48.178;11.578;2023-03-04T02:57:06;96150.00;;;4.12;66.02
58092;BME280;43896;48.178;11.578;2023-03-04T02:59:32;96142.75;;;4.04;66.68
58092;BME280;43896;48.178;11.578;2023-03-04T03:01:57;96124.13;;;3.98;66.32
58092;BME280;43896;48.178;11.578;2023-03-04T03:04:24;96146.06;;;4.06;66.61
58092;BME280;43896;48.178;11.578;2023-03-04T03:06:50;96144.50;;;4.04;66.91
58092;BME280;43896;48.178;11.578;2023-03-04T03:09:16;96147.72;;;4.07;66.82
58092;BME280;43896;48.178;11.578;2023-03-04T03:11:41;96145.97;;;4.08;66.83
58092;BME280;43896;48.178;11.578;2023-03-04T03:14:07;96141.91;;;4.04;66.33
58092;BME280;43896;48.178;11.578;2023-03-04T03:16:32;96148.06;;;4.03;66.67
58092;BME280;43896;48.178;11.578;2023-03-04T03:18:58;96145.66;;;4.00;66.21
58092;BME280;43896;48.178;11.578;2023-03-04T03:21:23;96158.50;;;3.90;66.70
58092;BME280;43896;48.178;11.578;2023-03-04T03:23:48;96155.38;;;3.85;67.18
58092;BME280;43896;48.178;11.578;2023-03-04T03:26:14;96128.31;;;3.63;66.78
58092;BME280;43896;48.178;11.578;2023-03-04T03:28:39;96149.56;;;3.81;66.48
58092;BME280;43896;48.178;11.578;2023-03-04T03:31:05;96135.44;;;3.72;67.12
58092;BME280;43896;48.178;11.578;2023-03-04T03:33:30;96152.28;;;3.80;66.77
58092;BME280;43896;48.178;11.578;2023-03-04T03:35:55;96144.81;;;3.75;66.61
58092;BME280;43896;48.178;11.578;2023-03-04T03:38:21;96139.13;;;3.70;66.30
58092;BME280;43896;48.178;11.578;2023-03-04T03:40:46;96136.28;;;3.73;66.85
58092;BME280;43896;48.178;11.578;2023-03-04T03:43:11;96151.56;;;3.78;66.39
58092;BME280;43896;48.178;11.578;2023-03-04T03:45:37;96129.75;;;3.67;66.83
58092;BME280;43896;48.178;11.578;2023-03-04T03:48:02;96142.31;;;3.73;66.70
58092;BME280;43896;48.178;11.578;2023-03-04T03:50:28;96147.13;;;3.67;66.93
58092;BME280;43896;48.178;11.578;2023-03-04T03:52:54;96142.03;;;3.65;66.42
58092;BME280;43896;48.178;11.578;2023-03-04T03:55:19;96144.72;;;3.64;66.63
58092;BME280;43896;48.178;11.578;2023-03-04T03:57:45;96140.03;;;3.69;66.32
58092;BME280;43896;48.178;11.578;2023-03-04T04:00:10;96132.78;;;3.61;66.64
58092;BME280;43896;48.178;11.578;2023-03-04T04:02:36;96142.34;;;3.61;66.29
58092;BME280;43896;48.178;11.578;2023-03-04T04:05:01;96137.69;;;3.53;66.58
58092;BME280;43896;48.178;11.578;2023-03-04T04:07:26;96140.09;;;3.56;66.41
58092;BME280;43896;48.178;11.578;2023-03-04T04:09:52;96140.09;;;3.56;66.57
58092;BME280;43896;48.178;11.578;2023-03-04T04:12:18;96129.28;;;3.49;66.73
58092;BME280;43896;48.178;11.578;2023-03-04T04:14:43;96123.47;;;3.46;66.41
58092;BME280;43896;48.178;11.578;2023-03-04T04:17:09;96116.19;;;3.38;66.34
58092;BME280;43896;48.178;11.578;2023-03-04T04:19:35;96140.28;;;3.53;66.60
58092;BME280;43896;48.178;11.578;2023-03-04T04:22:01;96147.38;;;3.51;66.20
58092;BME280;43896;48.178;11.578;2023-03-04T04:24:26;96150.81;;;3.51;66.71
58092;BME280;43896;48.178;11.578;2023-03-04T04:26:52;96131.88;;;3.36;66.30
58092;BME280;43896;48.178;11.578;2023-03-04T04:29:17;96150.09;;;3.49;66.04
58092;BME280;43896;48.178;11.578;2023-03-04T04:31:42;96150.19;;;3.48;66.02
58092;BME280;43896;48.178;11.578;2023-03-04T04:34:08;96136.25;;;3.36;66.31
58092;BME280;43896;48.178;11.578;2023-03-04T04:36:33;96144.28;;;3.33;66.22
58092;BME280;43896;48.178;11.578;2023-03-04T04:38:58;96142.78;;;3.42;65.90
58092;BME280;43896;48.178;11.578;2023-03-04T04:41:27;96123.50;;;3.20;66.68
58092;BME280;43896;48.178;11.578;2023-03-04T04:43:54;96136.78;;;3.28;66.18
58092;BME280;43896;48.178;11.578;2023-03-04T04:46:19;96131.91;;;3.24;66.15
58092;BME280;43896;48.178;11.578;2023-03-04T04:48:45;96145.53;;;3.27;66.30
58092;BME280;43896;48.178;11.578;2023-03-04T04:51:10;96140.34;;;3.27;66.66
58092;BME280;43896;48.178;11.578;2023-03-04T04:53:36;96144.06;;;3.23;66.85
58092;BME280;43896;48.178;11.578;2023-03-04T04:56:13;96134.72;;;3.08;66.56
58092;BME280;43896;48.178;11.578;2023-03-04T04:58:39;96141.91;;;3.17;66.86
58092;BME280;43896;48.178;11.578;2023-03-04T05:01:05;96145.13;;;3.21;66.86
58092;BME280;43896;48.178;11.578;2023-03-04T05:03:32;96121.31;;;3.14;66.30
58092;BME280;43896;48.178;11.578;2023-03-04T05:05:58;96145.53;;;3.27;66.54
58092;BME280;43896;48.178;11.578;2023-03-04T05:08:23;96134.09;;;3.17;66.48
58092;BME280;43896;48.178;11.578;2023-03-04T05:10:48;96133.91;;;3.20;66.40
58092;BME280;43896;48.178;11.578;2023-03-04T05:13:13;96143.25;;;3.23;66.50
58092;BME280;43896;48.178;11.578;2023-03-04T05:15:39;96148.84;;;3.29;66.84
58092;BME280;43896;48.178;11.578;2023-03-04T05:18:04;96113.63;;;3.12;66.38
58092;BME280;43896;48.178;11.578;2023-03-04T05:20:29;96131.81;;;3.25;65.93
58092;BME280;43896;48.178;11.578;2023-03-04T05:22:55;96116.00;;;3.15;65.75
58092;BME280;43896;48.178;11.578;2023-03-04T05:25:20;96140.03;;;3.32;65.65
58092;BME280;43896;48.178;11.578;2023-03-04T05:27:45;96141.88;;;3.30;66.06
58092;BME280;43896;48.178;11.578;2023-03-04T05:30:11;96134.06;;;3.30;65.57
58092;BME280;43896;48.178;11.578;2023-03-04T05:32:36;96146.03;;;3.32;66.05
58092;BME280;43896;48.178;11.578;2023-03-04T05:35:02;96119.44;;;3.16;65.68
58092;BME280;43896;48.178;11.578;2023-03-04T05:37:27;96146.56;;;3.25;65.73
58092;BME280;43896;48.178;11.578;2023-03-04T05:39:53;96143.69;;;3.16;66.16
58092;BME280;43896;48.178;11.578;2023-03-04T05:42:18;96152.09;;;3.20;66.57
58092;BME280;43896;48.178;11.578;2023-03-04T05:44:43;96148.75;;;3.18;66.38
58092;BME280;43896;48.178;11.578;2023-03-04T05:47:09;96142.50;;;3.08;66.43
58092;BME280;43896;48.178;11.578;2023-03-04T05:49:34;96161.53;;;3.21;66.54
58092;BME280;43896;48.178;11.578;2023-03-04T05:51:59;96136.69;;;3.17;66.04
58092;BME280;43896;48.178;11.578;2023-03-04T05:54:24;96130.44;;;3.19;66.61
58092;BME280;43896;48.178;11.578;2023-03-04T05:56:50;96155.50;;;3.33;66.33
58092;BME280;43896;48.178;11.578;2023-03-04T05:59:15;96159.16;;;3.31;65.58
58092;BME280;43896;48.178;11.578;2023-03-04T06:01:45;96163.41;;;3.32;66.00
58092;BME280;43896;48.178;11.578;2023-03-04T06:04:10;96133.91;;;3.20;66.13
58092;BME280;43896;48.178;11.578;2023-03-04T06:06:35;96145.31;;;3.30;65.32
58092;BME280;43896;48.178;11.578;2023-03-04T06:09:01;96156.00;;;3.38;65.38
58092;BME280;43896;48.178;11.578;2023-03-04T06:11:26;96173.38;;;3.38;65.87
58092;BME280;43896;48.178;11.578;2023-03-04T06:13:51;96153.75;;;3.34;65.39
58092;BME280;43896;48.178;11.578;2023-03-04T06:16:17;96175.66;;;3.43;65.74
58092;BME280;43896;48.178;11.578;2023-03-04T06:18:42;96169.44;;;3.32;65.69
58092;BME280;43896;48.178;11.578;2023-03-04T06:21:07;96156.13;;;3.37;65.55
58092;BME280;43896;48.178;11.578;2023-03-04T06:23:32;96173.16;;;3.54;65.60
58092;BME280;43896;48.178;11.578;2023-03-04T06:25:59;96173.91;;;3.56;65.11
58092;BME280;43896;48.178;11.578;2023-03-04T06:28:24;96180.75;;;3.57;65.26
58092;BME280;43896;48.178;11.578;2023-03-04T06:30:51;96178.34;;;3.54;65.28
58092;BME280;43896;48.178;11.578;2023-03-04T06:33:16;96171.28;;;3.43;65.74
58092;BME280;43896;48.178;11.578;2023-03-04T06:35:42;96163.50;;;3.43;65.04
58092;BME280;43896;48.178;11.578;2023-03-04T06:38:07;96174.41;;;3.61;64.56
58092;BME280;43896;48.178;11.578;2023-03-04T06:40:32;96165.41;;;3.78;67.11
58092;BME280;43896;48.178;11.578;2023-03-04T06:43:07;96173.13;;;4.04;64.33
58092;BME280;43896;48.178;11.578;2023-03-04T06:45:32;96189.22;;;4.22;63.24
58092;BME280;43896;48.178;11.578;2023-03-04T06:47:57;96194.97;;;4.38;62.87
58092;BME280;43896;48.178;11.578;2023-03-04T06:50:23;96186.81;;;4.43;62.31
58092;BME280;43896;48.178;11.578;2023-03-04T06:52:48;96176.88;;;4.37;62.17
58092;BME280;43896;48.178;11.578;2023-03-04T06:55:14;96199.44;;;4.60;61.86
58092;BME280;43896;48.178;11.578;2023-03-04T06:57:39;96198.34;;;4.51;62.02
58092;BME280;43896;48.178;11.578;2023-03-04T07:00:05;96190.19;;;4.56;61.45
58092;BME280;43896;48.178;11.578;2023-03-04T07:02:31;96175.06;;;4.61;61.17
58092;BME280;43896;48.178;11.578;2023-03-04T07:04:56;96192.06;;;4.78;61.24
58092;BME280;43896;48.178;11.578;2023-03-04T07:07:22;96170.75;;;4.84;60.17
58092;BME280;43896;48.178;11.578;2023-03-04T07:09:47;96192.13;;;5.01;60.32
58092;BME280;43896;48.178;11.578;2023-03-04T07:12:13;96198.56;;;5.19;59.76
58092;BME280;43896;48.178;11.578;2023-03-04T07:14:38;96190.94;;;5.05;59.86
58092;BME280;43896;48.178;11.578;2023-03-04T07:17:03;96200.97;;;4.87;60.69
58092;BME280;43896;48.178;11.578;2023-03-04T07:19:29;96203.38;;;5.01;59.70
58092;BME280;43896;48.178;11.578;2023-03-04T07:21:54;96202.47;;;5.25;60.25
58092;BME280;43896;48.178;11.578;2023-03-04T07:24:20;96199.00;;;5.13;59.71
58092;BME280;43896;48.178;11.578;2023-03-04T07:26:45;96150.00;;;4.83;59.57
58092;BME280;43896;48.178;11.578;2023-03-04T07:29:11;96212.78;;;5.26;59.63
58092;BME280;43896;48.178;11.578;2023-03-04T07:31:37;96193.72;;;5.26;59.71
58092;BME280;43896;48.178;11.578;2023-03-04T07:34:04;96208.44;;;5.50;58.60
58092;BME280;43896;48.178;11.578;2023-03-04T07:36:30;96225.41;;;5.55;58.74
58092;BME280;43896;48.178;11.578;2023-03-04T07:38:56;96225.84;;;5.49;58.83
58092;BME280;43896;48.178;11.578;2023-03-04T07:41:24;96227.66;;;5.49;58.74
58092;BME280;43896;48.178;11.578;2023-03-04T07:43:50;96233.22;;;5.55;58.89
58092;BME280;43896;48.178;11.578;2023-03-04T07:46:15;96195.97;;;5.53;58.09
58092;BME280;43896;48.178;11.578;2023-03-04T07:48:40;96229.41;;;5.71;58.46
58092;BME280;43896;48.178;11.578;2023-03-04T07:51:10;96232.16;;;5.69;57.95
58092;BME280;43896;48.178;11.578;2023-03-04T07:53:37;96233.59;;;5.73;58.13
58092;BME280;43896;48.178;11.578;2023-03-04T07:56:04;96244.84;;;5.51;58.20
58092;BME280;43896;48.178;11.578;2023-03-04T07:58:30;96244.50;;;5.78;58.00
58092;BME280;43896;48.178;11.578;2023-03-04T08:00:56;96246.97;;;5.91;58.02
58092;BME280;43896;48.178;11.578;2023-03-04T08:03:21;96249.50;;;6.04;57.81
58092;BME280;43896;48.178;11.578;2023-03-04T08:05:47;96261.84;;;5.79;57.36
58092;BME280;43896;48.178;11.578;2023-03-04T08:08:12;96234.31;;;5.64;57.83
58092;BME280;43896;48.178;11.578;2023-03-04T08:10:37;96250.78;;;5.76;57.08
58092;BME280;43896;48.178;11.578;2023-03-04T08:13:05;96260.53;;;6.08;56.99
58092;BME280;43896;48.178;11.578;2023-03-04T08:15:30;96247.84;;;6.03;56.73
58092;BME280;43896;48.178;11.578;2023-03-04T08:17:57;96224.34;;;6.14;55.86
58092;BME280;43896;48.178;11.578;2023-03-04T08:20:22;96242.91;;;6.44;55.46
58092;BME280;43896;48.178;11.578;2023-03-04T08:22:48;96216.97;;;6.63;55.21
58092;BME280;43896;48.178;11.578;2023-03-04T08:25:13;96246.81;;;6.93;54.63
58092;BME280;43896;48.178;11.578;2023-03-04T08:27:38;96247.16;;;7.21;54.46
58092;BME280;43896;48.178;11.578;2023-03-04T08:30:04;96247.81;;;7.65;53.21
58092;BME280;43896;48.178;11.578;2023-03-04T08:32:30;96243.31;;;7.77;52.35
58092;BME280;43896;48.178;11.578;2023-03-04T08:34:55;96240.81;;;7.96;51.75
58092;BME280;43896;48.178;11.578;2023-03-04T08:37:21;96248.31;;;8.11;50.96
58092;BME280;43896;48.178;11.578;2023-03-04T08:39:46;96175.66;;;7.72;50.47
58092;BME280;43896;48.178;11.578;2023-03-04T08:42:11;96225.44;;;8.22;50.20
58092;BME280;43896;48.178;11.578;2023-03-04T08:44:37;96227.34;;;8.61;49.67
58092;BME280;43896;48.178;11.578;2023-03-04T08:47:03;96239.78;;;8.88;48.77
58092;BME280;43896;48.178;11.578;2023-03-04T08:49:28;96237.84;;;9.19;49.07
58092;BME280;43896;48.178;11.578;2023-03-04T08:51:54;96203.47;;;9.13;48.34
58092;BME280;43896;48.178;11.578;2023-03-04T08:54:19;96221.63;;;9.53;47.61
58092;BME280;43896;48.178;11.578;2023-03-04T08:56:44;96226.81;;;9.06;47.46
58092;BME280;43896;48.178;11.578;2023-03-04T08:59:10;96242.41;;;9.27;47.62
58092;BME280;43896;48.178;11.578;2023-03-04T09:01:35;96243.72;;;9.61;46.45
58092;BME280;43896;48.178;11.578;2023-03-04T09:04:01;96221.38;;;9.94;46.21
58092;BME280;43896;48.178;11.578;2023-03-04T09:06:26;96205.88;;;10.19;45.24
58092;BME280;43896;48.178;11.578;2023-03-04T09:08:51;96234.53;;;10.49;44.70
58092;BME280;43896;48.178;11.578;2023-03-04T09:11:16;96227.78;;;10.65;44.60
58092;BME280;43896;48.178;11.578;2023-03-04T09:13:42;96235.00;;;10.63;43.37
58092;BME280;43896;48.178;11.578;2023-03-04T09:16:09;96219.84;;;10.75;43.58
58092;BME280;43896;48.178;11.578;2023-03-04T09:18:35;96219.59;;;10.68;44.18
58092;BME280;43896;48.178;11.578;2023-03-04T09:21:00;96227.66;;;10.84;42.72
58092;BME280;43896;48.178;11.578;2023-03-04T09:23:26;96204.28;;;10.81;42.85
58092;BME280;43896;48.178;11.578;2023-03-04T09:25:51;96216.94;;;11.40;42.28
58092;BME280;43896;48.178;11.578;2023-03-04T09:28:17;96223.69;;;11.69;41.64
58092;BME280;43896;48.178;11.578;2023-03-04T09:30:43;96225.97;;;11.90;41.64
58092;BME280;43896;48.178;11.578;2023-03-04T09:33:09;96228.50;;;11.99;40.70
58092;BME280;43896;48.178;11.578;2023-03-04T09:35:34;96231.34;;;12.06;40.41
58092;BME280;43896;48.178;11.578;2023-03-04T09:38:00;96215.56;;;11.36;41.15
58092;BME280;43896;48.178;11.578;2023-03-04T09:40:29;96231.13;;;11.47;41.46
58092;BME280;43896;48.178;11.578;2023-03-04T09:43:02;96226.38;;;11.51;41.40
58092;BME280;43896;48.178;11.578;2023-03-04T09:45:39;96226.09;;;10.18;43.54
58092;BME280;43896;48.178;11.578;2023-03-04T09:48:06;96228.66;;;11.27;42.45
58092;BME280;43896;48.178;11.578;2023-03-04T09:50:40;96208.16;;;11.57;41.54
58092;BME280;43896;48.178;11.578;2023-03-04T09:53:22;96213.47;;;12.26;40.30
58092;BME280;43896;48.178;11.578;2023-03-04T09:55:53;96223.63;;;12.13;40.49
58092;BME280;43896;48.178;11.578;2023-03-04T09:58:35;96227.63;;;12.25;39.45
58092;BME280;43896;48.178;11.578;2023-03-04T10:01:11;96203.91;;;10.94;42.22
58092;BME280;43896;48.178;11.578;2023-03-04T10:03:46;96209.97;;;12.17;40.50
58092;BME280;43896;48.178;11.578;2023-03-04T10:06:19;96216.16;;;12.43;39.14
58092;BME280;43896;48.178;11.578;2023-03-04T10:08:53;96212.47;;;11.93;40.08
58092;BME280;43896;48.178;11.578;2023-03-04T10:11:31;96197.59;;;12.85;39.27
58092;BME280;43896;48.178;11.578;2023-03-04T10:16:28;96187.00;;;13.84;36.66
58092;BME280;43896;48.178;11.578;2023-03-04T10:19:00;96190.03;;;14.12;36.78
58092;BME280;43896;48.178;11.578;2023-03-04T10:21:32;96180.13;;;13.50;36.51
58092;BME280;43896;48.178;11.578;2023-03-04T10:24:07;96177.28;;;13.60;36.36
58092;BME280;43896;48.178;11.578;2023-03-04T10:26:35;96186.03;;;14.16;35.76
58092;BME280;43896;48.178;11.578;2023-03-04T10:29:09;96166.97;;;13.90;35.72
58092;BME280;43896;48.178;11.578;2023-03-04T10:31:40;96188.38;;;13.14;36.29
58092;BME280;43896;48.178;11.578;2023-03-04T10:34:09;96190.31;;;13.78;34.93
58092;BME280;43896;48.178;11.578;2023-03-04T10:36:58;96167.66;;;13.75;34.14
58092;BME280;43896;48.178;11.578;2023-03-04T10:39:33;96170.28;;;14.54;33.68
58092;BME280;43896;48.178;11.578;2023-03-04T10:42:23;96177.53;;;14.69;33.13
58092;BME280;43896;48.178;11.578;2023-03-04T10:44:56;96146.19;;;14.80;34.01
58092;BME280;43896;48.178;11.578;2023-03-04T10:47:26;96170.19;;;15.02;34.50
58092;BME280;43896;48.178;11.578;2023-03-04T10:49:57;96187.25;;;14.99;35.96
58092;BME280;43896;48.178;11.578;2023-03-04T10:54:55;96163.19;;;14.86;36.52
58092;BME280;43896;48.178;11.578;2023-03-04T10:57:37;96159.34;;;14.66;34.70
58092;BME280;43896;48.178;11.578;2023-03-04T11:02:41;96135.31;;;12.09;38.93
58092;BME280;43896;48.178;11.578;2023-03-04T11:05:22;96167.13;;;9.65;43.62
58092;BME280;43896;48.178;11.578;2023-03-04T11:13:05;96155.44;;;11.83;40.56
58092;BME280;43896;48.178;11.578;2023-03-04T11:15:57;96174.00;;;9.76;43.95
58092;BME280;43896;48.178;11.578;2023-03-04T11:18:27;96170.09;;;10.81;42.97
58092;BME280;43896;48.178;11.578;2023-03-04T11:20:57;96143.50;;;9.93;43.42
58092;BME280;43896;48.178;11.578;2023-03-04T11:23:33;96139.78;;;11.21;41.15
58092;BME280;43896;48.178;11.578;2023-03-04T11:26:03;96159.16;;;11.99;40.59
58092;BME280;43896;48.178;11.578;2023-03-04T11:28:43;96152.56;;;11.69;41.13
58092;BME280;43896;48.178;11.578;2023-03-04T11:31:28;96164.66;;;10.19;43.37
58092;BME280;43896;48.178;11.578;2023-03-04T11:33:58;96160.22;;;10.83;42.10
58092;BME280;43896;48.178;11.578;2023-03-04T11:39:17;96159.34;;;11.45;41.00
58092;BME280;43896;48.178;11.578;2023-03-04T11:41:54;96158.97;;;10.69;42.82
58092;BME280;43896;48.178;11.578;2023-03-04T11:44:21;96161.56;;;11.05;42.42
58092;BME280;43896;48.178;11.578;2023-03-04T11:47:21;96163.06;;;12.29;39.94
58092;BME280;43896;48.178;11.578;2023-03-04T11:52:44;96142.78;;;11.00;42.03
58092;BME280;43896;48.178;11.578;2023-03-04T12:01:00;96142.66;;;10.02;43.79
58092;BME280;43896;48.178;11.578;2023-03-04T12:03:45;96139.88;;;11.64;40.84
58092;BME280;43896;48.178;11.578;2023-03-04T12:20:29;96121.88;;;11.25;42.55
58092;BME280;43896;48.178;11.578;2023-03-04T12:23:39;96106.34;;;9.88;44.27
58092;BME280;43896;48.178;11.578;2023-03-04T12:29:03;96113.63;;;11.02;42.11
58092;BME280;43896;48.178;11.578;2023-03-04T12:31:39;96078.03;;;10.89;42.85
58092;BME280;43896;48.178;11.578;2023-03-04T12:39:40;96101.00;;;9.80;46.26
58092;BME280;43896;48.178;11.578;2023-03-04T12:45:17;96102.22;;;8.63;49.45
58092;BME280;43896;48.178;11.578;2023-03-04T12:48:08;96095.19;;;9.20;48.38
58092;BME280;43896;48.178;11.578;2023-03-04T12:53:36;96077.91;;;10.01;45.91
58092;BME280;43896;48.178;11.578;2023-03-04T12:56:04;96093.84;;;9.07;48.25
58092;BME280;43896;48.178;11.578;2023-03-04T12:58:32;96087.22;;;9.68;48.03
58092;BME280;43896;48.178;11.578;2023-03-04T13:01:12;96078.44;;;9.59;46.67
58092;BME280;43896;48.178;11.578;2023-03-04T13:03:44;96091.41;;;9.61;47.22
58092;BME280;43896;48.178;11.578;2023-03-04T13:06:27;96092.78;;;8.80;49.23
58092;BME280;43896;48.178;11.578;2023-03-04T13:09:02;96087.09;;;7.77;51.32
58092;BME280;43896;48.178;11.578;2023-03-04T13:16:46;96076.25;;;9.27;48.19
58092;BME280;43896;48.178;11.578;2023-03-04T13:36:00;96067.00;;;8.17;51.18
58092;BME280;43896;48.178;11.578;2023-03-04T13:41:19;96066.69;;;9.35;48.30
58092;BME280;43896;48.178;11.578;2023-03-04T13:43:52;96000.13;;;8.13;49.40
58092;BME280;43896;48.178;11.578;2023-03-04T13:54:13;96068.72;;;7.17;54.01
58092;BME280;43896;48.178;11.578;2023-03-04T13:56:43;96045.88;;;7.79;52.78
58092;BME280;43896;48.178;11.578;2023-03-04T13:59:37;96061.34;;;8.41;50.92
58092;BME280;43896;48.178;11.578;2023-03-04T14:02:17;95999.56;;;8.09;50.71
58092;BME280;43896;48.178;11.578;2023-03-04T14:04:55;95986.34;;;8.20;50.06
58092;BME280;43896;48.178;11.578;2023-03-04T14:07:29;95966.03;;;8.52;48.50
58092;BME280;43896;48.178;11.578;2023-03-04T14:12:40;96058.31;;;8.65;49.18
58092;BME280;43896;48.178;11.578;2023-03-04T14:17:43;96045.75;;;8.00;50.65
58092;BME280;43896;48.178;11.578;2023-03-04T14:20:34;96045.84;;;7.60;51.80
58092;BME280;43896;48.178;11.578;2023-03-04T14:23:06;96043.91;;;7.52;52.86
58092;BME280;43896;48.178;11.578;2023-03-04T14:29:30;95955.88;;;8.19;48.79
58092;BME280;43896;48.178;11.578;2023-03-04T14:32:23;96059.31;;;8.44;49.29
58092;BME280;43896;48.178;11.578;2023-03-04T14:51:55;95944.00;;;5.83;53.79
58092;BME280;43896;48.178;11.578;2023-03-04T14:57:52;96050.03;;;5.29;57.29
58092;BME280;43896;48.178;11.578;2023-03-04T15:00:36;95955.38;;;4.16;58.42